Time;durP1;ratioP1;P1;durP2;ratioP2;P2;SDS_P1;SDS_P2;PMS_P1;PMS_P2;Temp;Humidity;BMP_temperature;BMP_pressure;BME280_temperature;BME280_humidity;BME280_pressure;Samples;Min_cycle;Max_cycle;Signal;HPM_P1;HPM_P2
2020/12/19 00:01:48;;;;;;;29.25;17.75;;;4.80;99.90;;;;;;5097768;28;20020;-68
2020/12/19 00:04:14;;;;;;;28.80;16.50;;;4.90;99.90;;;;;;5096244;28;20016;-68
2020/12/19 00:06:44;;;;;;;32.63;16.88;;;4.80;99.90;;;;;;5097687;28;20020;-68
2020/12/19 00:09:10;;;;;;;31.77;17.63;;;4.70;99.90;;;;;;5096455;28;20028;-68
2020/12/19 00:11:36;;;;;;;39.58;20.42;;;4.60;99.90;;;;;;5097696;28;20098;-68
2020/12/19 00:14:01;;;;;;;51.90;26.05;;;4.50;99.90;;;;;;5097627;28;20103;-68
2020/12/19 00:16:29;;;;;;;44.95;24.73;;;4.60;99.90;;;;;;5097058;28;20047;-68
2020/12/19 00:18:55;;;;;;;46.35;23.63;;;4.40;99.90;;;;;;5097347;28;20452;-68
2020/12/19 00:21:21;;;;;;;46.53;22.35;;;4.70;99.90;;;;;;5097115;28;20483;-68
2020/12/19 00:23:47;;;;;;;43.55;23.35;;;4.60;99.90;;;;;;5097048;28;20024;-68
2020/12/19 00:26:13;;;;;;;45.15;22.10;;;4.60;99.90;;;;;;5096986;28;20024;-68
2020/12/19 00:28:40;;;;;;;42.03;21.77;;;4.60;99.90;;;;;;5095477;28;20024;-69
2020/12/19 00:31:06;;;;;;;37.97;20.35;;;4.70;99.90;;;;;;5097175;28;20023;-68
2020/12/19 00:33:32;;;;;;;42.83;21.63;;;4.60;99.90;;;;;;5096590;28;20473;-68
2020/12/19 00:35:57;;;;;;;39.10;19.58;;;4.90;99.90;;;;;;5097114;28;20073;-68
2020/12/19 00:38:23;;;;;;;38.47;18.42;;;5.20;99.90;;;;;;5096934;28;20028;-68
2020/12/19 00:40:48;;;;;;;29.17;15.95;;;5.30;99.90;;;;;;5096990;28;20024;-68
2020/12/19 00:43:14;;;;;;;30.17;15.88;;;5.50;99.90;;;;;;5096676;28;20020;-68
2020/12/19 00:45:40;;;;;;;35.40;18.02;;;6.20;99.90;;;;;;5096850;28;20020;-69
2020/12/19 00:48:05;;;;;;;25.70;14.27;;;5.80;99.90;;;;;;5096840;28;20055;-68
2020/12/19 00:50:31;;;;;;;22.58;12.95;;;5.80;99.90;;;;;;5096815;28;20597;-68
2020/12/19 00:52:56;;;;;;;20.10;12.93;;;5.70;99.90;;;;;;5096703;28;20464;-68
2020/12/19 00:55:22;;;;;;;24.20;14.88;;;5.60;99.90;;;;;;5096719;28;20040;-68
2020/12/19 00:57:47;;;;;;;23.48;14.45;;;5.60;99.90;;;;;;5096596;28;20051;-68
2020/12/19 01:00:13;;;;;;;26.92;14.32;;;5.60;99.90;;;;;;5094808;28;20024;-68
2020/12/19 01:02:39;;;;;;;26.20;13.95;;;5.70;99.90;;;;;;5096292;28;20047;-68
2020/12/19 01:05:08;;;;;;;28.30;15.25;;;5.60;99.90;;;;;;5078110;28;20080;-68
2020/12/19 01:07:36;;;;;;;25.73;13.98;;;5.60;99.90;;;;;;5095934;28;20048;-68
2020/12/19 01:10:03;;;;;;;24.90;13.73;;;5.50;99.90;;;;;;5096077;28;20043;-69
2020/12/19 01:12:29;;;;;;;24.42;13.48;;;5.50;99.90;;;;;;5096142;28;20028;-68
2020/12/19 01:14:54;;;;;;;26.42;14.07;;;5.40;99.90;;;;;;5096041;28;20020;-69
2020/12/19 01:17:20;;;;;;;24.63;14.75;;;5.50;99.90;;;;;;5094532;28;20443;-68
2020/12/19 01:19:45;;;;;;;28.45;15.38;;;5.50;99.90;;;;;;5096238;28;20099;-68
2020/12/19 01:22:11;;;;;;;23.67;14.15;;;5.50;99.90;;;;;;5096199;28;20031;-68
2020/12/19 01:24:36;;;;;;;25.48;14.20;;;5.50;99.90;;;;;;5096120;28;20028;-68
2020/12/19 01:27:02;;;;;;;27.00;14.52;;;5.70;99.90;;;;;;5094636;28;20032;-69
2020/12/19 01:29:28;;;;;;;23.13;12.93;;;5.80;99.90;;;;;;5096062;28;20480;-69
2020/12/19 01:31:53;;;;;;;22.25;13.13;;;6.00;99.90;;;;;;5095968;28;20024;-69
2020/12/19 01:34:19;;;;;;;23.38;12.43;;;6.00;99.90;;;;;;5095957;28;20068;-69
2020/12/19 01:36:46;;;;;;;20.20;11.90;;;6.20;99.90;;;;;;5095806;28;20089;-68
2020/12/19 01:39:12;;;;;;;18.52;11.35;;;6.40;99.90;;;;;;5095887;28;20028;-68
2020/12/19 01:41:37;;;;;;;17.98;11.35;;;6.40;99.90;;;;;;5094376;28;20020;-68
2020/12/19 01:44:04;;;;;;;17.67;11.52;;;6.40;99.90;;;;;;5095460;28;20051;-69
2020/12/19 01:46:58;;;;;;;20.98;11.52;;;6.40;99.90;;;;;;5095779;28;20012;-69
2020/12/19 01:49:28;;;;;;;19.90;10.95;;;6.30;99.90;;;;;;5094694;28;20020;-69
2020/12/19 01:51:57;;;;;;;20.38;12.32;;;6.40;99.90;;;;;;5095411;28;20129;-69
2020/12/19 01:54:23;;;;;;;18.48;11.13;;;6.40;99.90;;;;;;5095584;28;20461;-68
2020/12/19 01:56:54;;;;;;;20.58;10.88;;;6.40;99.90;;;;;;5095477;28;20064;-68
2020/12/19 01:59:21;;;;;;;15.07;10.60;;;6.20;99.90;;;;;;5094959;28;20020;-68
2020/12/19 02:01:52;;;;;;;24.30;12.05;;;6.10;99.90;;;;;;5095143;28;20462;-69
2020/12/19 02:04:19;;;;;;;17.40;11.23;;;5.90;99.90;;;;;;5093626;28;20024;-68
2020/12/19 02:06:49;;;;;;;18.55;11.45;;;5.90;99.90;;;;;;5095092;28;20552;-68
2020/12/19 02:09:17;;;;;;;21.08;11.70;;;5.80;99.90;;;;;;5095290;28;20411;-68
2020/12/19 02:11:44;;;;;;;20.98;12.70;;;5.70;99.90;;;;;;5095294;28;20023;-69
2020/12/19 02:14:11;;;;;;;24.60;12.27;;;5.70;99.90;;;;;;5095225;28;20016;-68
2020/12/19 02:16:37;;;;;;;23.33;12.45;;;5.70;99.90;;;;;;5094560;28;20040;-69
2020/12/19 02:19:19;;;;;;;20.08;11.35;;;5.60;99.90;;;;;;5095121;28;20023;-68
2020/12/19 02:21:44;;;;;;;20.58;12.57;;;5.40;99.90;;;;;;5094412;28;20364;-68
2020/12/19 02:24:10;;;;;;;22.85;12.05;;;5.40;99.90;;;;;;5094952;28;20020;-68
2020/12/19 02:26:36;;;;;;;20.77;11.70;;;5.30;99.90;;;;;;5093824;28;20020;-68
2020/12/19 02:29:02;;;;;;;18.75;10.85;;;5.10;99.90;;;;;;5094924;28;20028;-68
2020/12/19 02:31:28;;;;;;;13.85;9.25;;;5.00;99.90;;;;;;5094914;28;20035;-68
2020/12/19 02:33:53;;;;;;;19.85;12.80;;;4.90;99.90;;;;;;5094833;28;20024;-69
2020/12/19 02:36:19;;;;;;;25.85;14.93;;;4.80;99.90;;;;;;5076146;28;20069;-68
2020/12/19 02:38:45;;;;;;;24.10;13.23;;;5.00;99.90;;;;;;5094400;28;20032;-68
2020/12/19 02:41:10;;;;;;;27.42;15.05;;;5.10;99.90;;;;;;5094426;28;20027;-69
2020/12/19 02:43:36;;;;;;;31.63;17.00;;;5.10;99.90;;;;;;5094372;28;20016;-69
2020/12/19 02:46:01;;;;;;;30.85;16.20;;;5.00;99.90;;;;;;5094058;28;20056;-69
2020/12/19 02:48:27;;;;;;;35.90;18.40;;;5.20;99.90;;;;;;5094564;28;20074;-68
2020/12/19 02:50:52;;;;;;;34.70;17.02;;;5.10;99.90;;;;;;5094579;28;20020;-68
2020/12/19 02:53:18;;;;;;;28.65;16.73;;;5.30;99.90;;;;;;5094526;28;20028;-68
2020/12/19 02:55:44;;;;;;;32.75;18.73;;;5.30;99.90;;;;;;5094183;28;20476;-68
2020/12/19 02:58:09;;;;;;;32.55;18.20;;;5.40;99.90;;;;;;5094367;28;20101;-69
2020/12/19 03:00:35;;;;;;;31.67;18.63;;;5.50;99.90;;;;;;5094442;28;20024;-69
2020/12/19 03:03:00;;;;;;;31.00;17.63;;;5.60;99.90;;;;;;5094371;28;20024;-68
2020/12/19 03:05:26;;;;;;;32.38;18.52;;;5.60;99.90;;;;;;5094357;28;20031;-68
2020/12/19 03:07:52;;;;;;;35.00;18.70;;;5.50;99.90;;;;;;5094337;28;20024;-68
2020/12/19 03:10:17;;;;;;;33.67;18.50;;;5.70;99.90;;;;;;5094298;28;20365;-69
2020/12/19 03:12:43;;;;;;;31.23;17.65;;;5.80;99.90;;;;;;5092806;28;20384;-69
2020/12/19 03:15:08;;;;;;;31.50;18.15;;;5.80;99.90;;;;;;5094221;28;20031;-69
2020/12/19 03:17:34;;;;;;;32.78;16.88;;;5.90;99.90;;;;;;5093452;28;20113;-68
2020/12/19 03:20:00;;;;;;;31.63;18.38;;;5.90;99.90;;;;;;5094162;28;20027;-68
2020/12/19 03:22:25;;;;;;;29.77;18.27;;;6.00;99.90;;;;;;5092308;28;20107;-69
2020/12/19 03:24:51;;;;;;;31.25;18.67;;;6.00;99.90;;;;;;5094100;28;20063;-69
2020/12/19 03:27:16;;;;;;;30.73;17.73;;;6.00;99.90;;;;;;5094070;28;20077;-68
2020/12/19 03:29:42;;;;;;;28.60;17.38;;;6.10;99.90;;;;;;5094075;28;20035;-69
2020/12/19 03:32:07;;;;;;;30.40;18.30;;;6.10;99.90;;;;;;5092602;28;20027;-68
2020/12/19 03:34:33;;;;;;;29.20;17.13;;;6.00;99.90;;;;;;5095819;28;20036;-69
2020/12/19 03:37:00;;;;;;;28.98;17.75;;;6.00;99.90;;;;;;5098210;28;20031;-68
2020/12/19 03:39:25;;;;;;;34.97;18.90;;;5.90;99.90;;;;;;5097071;28;20044;-68
2020/12/19 03:41:51;;;;;;;33.58;18.70;;;5.90;99.90;;;;;;5098151;28;20414;-68
2020/12/19 03:44:16;;;;;;;35.08;19.50;;;5.90;99.90;;;;;;5098076;28;20016;-68
2020/12/19 03:46:42;;;;;;;32.88;18.73;;;5.90;99.90;;;;;;5098030;28;20170;-69
2020/12/19 03:49:07;;;;;;;31.95;17.98;;;5.80;99.90;;;;;;5096840;28;20020;-69
2020/12/19 03:51:33;;;;;;;31.48;17.83;;;5.80;99.90;;;;;;5097661;28;20386;-68
2020/12/19 03:53:59;;;;;;;32.80;19.23;;;5.70;99.90;;;;;;5097936;28;20024;-69
2020/12/19 03:56:24;;;;;;;29.17;17.13;;;5.70;99.90;;;;;;5097311;28;20028;-68
2020/12/19 03:58:50;;;;;;;33.47;17.90;;;5.60;99.90;;;;;;5097733;28;20368;-69
2020/12/19 04:01:15;;;;;;;34.67;19.02;;;5.50;99.90;;;;;;5097747;28;20407;-68
2020/12/19 04:03:41;;;;;;;34.60;20.30;;;5.50;99.90;;;;;;5097715;28;20472;-69
2020/12/19 04:06:06;;;;;;;32.45;19.58;;;5.60;99.90;;;;;;5095920;28;20024;-68
2020/12/19 04:08:32;;;;;;;31.83;18.00;;;5.60;99.90;;;;;;5097071;28;20077;-69
2020/12/19 04:10:58;;;;;;;31.45;18.13;;;5.60;99.90;;;;;;5097602;28;20107;-69
2020/12/19 04:13:23;;;;;;;33.53;19.33;;;5.50;99.90;;;;;;5097252;28;20107;-69
2020/12/19 04:15:49;;;;;;;45.45;23.10;;;5.40;99.90;;;;;;5097201;28;20422;-69
2020/12/19 04:18:14;;;;;;;43.33;23.77;;;5.60;99.90;;;;;;5096669;28;20048;-68
2020/12/19 04:20:40;;;;;;;40.75;22.70;;;5.70;99.90;;;;;;5097121;28;20024;-69
2020/12/19 04:23:05;;;;;;;44.22;22.95;;;5.70;99.90;;;;;;5097080;28;20028;-68
2020/12/19 04:25:31;;;;;;;41.83;22.83;;;5.70;99.90;;;;;;5096056;28;20035;-68
2020/12/19 04:27:56;;;;;;;38.30;21.08;;;5.80;99.90;;;;;;5095972;28;20100;-69
2020/12/19 04:30:22;;;;;;;36.60;21.58;;;5.80;99.90;;;;;;5097210;28;20487;-69
2020/12/19 04:32:48;;;;;;;40.67;21.45;;;5.70;99.90;;;;;;5097141;28;20172;-69
2020/12/19 04:35:13;;;;;;;35.75;21.58;;;5.70;99.90;;;;;;5096124;28;20024;-69
2020/12/19 04:37:39;;;;;;;42.03;23.50;;;5.70;99.90;;;;;;5096482;28;20546;-68
2020/12/19 04:40:05;;;;;;;36.90;20.77;;;5.80;99.90;;;;;;5096993;28;20024;-69
2020/12/19 04:42:32;;;;;;;40.72;20.92;;;5.70;99.90;;;;;;5096928;28;20081;-68
2020/12/19 04:44:58;;;;;;;36.10;19.95;;;5.60;99.90;;;;;;5096211;28;20047;-69
2020/12/19 04:47:23;;;;;;;36.83;20.88;;;5.60;99.90;;;;;;5096593;28;20043;-69
2020/12/19 04:49:49;;;;;;;41.53;23.15;;;5.50;99.90;;;;;;5096829;28;20066;-68
2020/12/19 04:52:16;;;;;;;46.17;24.95;;;5.50;99.90;;;;;;5096790;28;20414;-68
2020/12/19 04:54:43;;;;;;;41.72;21.80;;;5.50;99.90;;;;;;5094959;28;20393;-68
2020/12/19 04:57:17;;;;;;;36.83;20.60;;;5.60;99.90;;;;;;5095107;28;20431;-69
2020/12/19 04:59:42;;;;;;;27.23;16.48;;;5.40;99.90;;;;;;5095238;28;20024;-68
2020/12/19 05:02:08;;;;;;;39.83;22.77;;;5.00;99.90;;;;;;5094706;28;20027;-69
2020/12/19 05:04:37;;;;;;;43.42;23.67;;;5.10;99.90;;;;;;5096581;28;20477;-69
2020/12/19 05:07:06;;;;;;;43.80;23.52;;;5.10;99.90;;;;;;5096532;28;20034;-69
2020/12/19 05:09:38;;;;;;;50.30;25.88;;;5.30;99.90;;;;;;5096447;28;20095;-69
2020/12/19 05:12:04;;;;;;;53.45;25.77;;;5.30;99.90;;;;;;5096183;28;20133;-69
2020/12/19 05:14:33;;;;;;;37.47;22.05;;;5.20;99.90;;;;;;5095819;28;20493;-69
2020/12/19 05:16:59;;;;;;;43.40;22.67;;;5.00;99.90;;;;;;5095845;28;20047;-69
2020/12/19 05:19:27;;;;;;;55.03;25.77;;;5.00;99.90;;;;;;5096322;28;20017;-69
2020/12/19 05:21:54;;;;;;;57.17;27.17;;;4.90;99.90;;;;;;5095996;28;20020;-68
2020/12/19 05:24:29;;;;;;;48.67;25.77;;;5.00;99.90;;;;;;5095295;28;20042;-68
2020/12/19 05:26:54;;;;;;;52.17;25.40;;;5.00;99.90;;;;;;5095935;28;20436;-69
2020/12/19 05:29:20;;;;;;;48.05;24.52;;;5.00;99.90;;;;;;5096130;28;20048;-69
2020/12/19 05:31:55;;;;;;;57.17;27.10;;;4.90;99.90;;;;;;5095516;28;20016;-69
2020/12/19 05:34:22;;;;;;;55.88;28.45;;;4.90;99.90;;;;;;5096043;28;20023;-68
2020/12/19 05:36:50;;;;;;;64.15;30.65;;;5.00;99.90;;;;;;5095618;28;20016;-69
2020/12/19 05:39:16;;;;;;;55.47;28.40;;;5.10;99.90;;;;;;5095919;28;20055;-69
2020/12/19 05:41:42;;;;;;;53.95;26.90;;;5.10;99.90;;;;;;5095865;28;20020;-69
2020/12/19 05:44:07;;;;;;;50.95;25.88;;;5.10;99.90;;;;;;5095789;28;20047;-68
2020/12/19 05:46:41;;;;;;;56.63;27.45;;;4.90;99.90;;;;;;5095747;28;20062;-69
2020/12/19 05:49:09;;;;;;;47.45;25.83;;;4.80;99.90;;;;;;5077021;28;20028;-68
2020/12/19 05:51:39;;;;;;;45.63;24.70;;;4.70;99.90;;;;;;5095714;28;20020;-69
2020/12/19 05:54:07;;;;;;;64.47;28.83;;;4.60;99.90;;;;;;5095638;28;20472;-68
2020/12/19 05:56:35;;;;;;;61.88;30.23;;;4.60;99.90;;;;;;5094570;28;20468;-69
2020/12/19 05:59:02;;;;;;;73.10;32.10;;;4.80;99.90;;;;;;5077128;28;20028;-69
2020/12/19 06:01:29;;;;;;;82.15;35.10;;;5.00;99.90;;;;;;5095202;28;20069;-69
2020/12/19 06:03:56;;;;;;;70.65;32.83;;;5.20;99.90;;;;;;5095475;28;20020;-68
2020/12/19 06:06:24;;;;;;;69.05;33.33;;;5.30;99.90;;;;;;5095435;28;20373;-68
2020/12/19 06:08:50;;;;;;;69.03;31.77;;;5.30;99.90;;;;;;5095468;28;20554;-68
2020/12/19 06:11:19;;;;;;;63.20;31.52;;;5.50;99.90;;;;;;5095137;28;20028;-68
2020/12/19 06:13:56;;;;;;;58.50;30.05;;;5.50;99.90;;;;;;5093968;28;20045;-68
2020/12/19 06:16:23;;;;;;;60.17;30.08;;;5.40;99.90;;;;;;5095010;28;20131;-69
2020/12/19 06:18:54;;;;;;;52.10;28.25;;;5.30;99.90;;;;;;5094776;28;20487;-69
2020/12/19 06:21:20;;;;;;;56.25;27.52;;;5.30;99.90;;;;;;5094827;28;20031;-68
2020/12/19 06:23:46;;;;;;;56.83;28.63;;;5.30;99.90;;;;;;5076390;28;20385;-69
2020/12/19 06:26:13;;;;;;;52.95;27.23;;;5.50;99.90;;;;;;5093184;28;20020;-69
2020/12/19 06:31:19;;;;;;;50.03;25.80;;;5.40;99.90;;;;;;5091919;28;20828;-67
2020/12/19 06:33:48;;;;;;;55.75;28.92;;;5.60;99.90;;;;;;5091300;28;20046;-67
2020/12/19 06:36:19;;;;;;;51.88;27.63;;;5.70;99.90;;;;;;5091285;28;20023;-68
2020/12/19 06:41:58;;;;;;;41.25;23.10;;;5.70;99.90;;;;;;5132799;27;20395;-69
2020/12/19 06:44:32;;;;;;;48.38;25.35;;;5.60;99.90;;;;;;5132442;28;20027;-69
2020/12/19 06:47:01;;;;;;;48.63;25.95;;;5.70;99.90;;;;;;5132368;28;20395;-69
2020/12/19 06:49:29;;;;;;;50.72;26.00;;;5.60;99.90;;;;;;5132285;28;20023;-69
2020/12/19 06:52:20;;;;;;;48.10;26.13;;;5.70;99.90;;;;;;5114367;28;20398;-69
2020/12/19 06:54:48;;;;;;;50.38;25.60;;;5.70;99.90;;;;;;5113277;28;20022;-69
2020/12/19 06:57:30;;;;;;;53.08;25.95;;;5.70;99.90;;;;;;5131581;28;20102;-69
2020/12/19 07:00:17;;;;;;;56.40;27.05;;;5.70;99.90;;;;;;5113508;28;20024;-69
2020/12/19 07:02:52;;;;;;;53.72;27.58;;;5.80;99.90;;;;;;5131989;28;20049;-69
2020/12/19 07:05:20;;;;;;;51.60;25.98;;;6.00;99.90;;;;;;5132027;28;20027;-69
2020/12/19 07:07:47;;;;;;;43.10;24.73;;;6.10;99.90;;;;;;5132006;28;20020;-68
2020/12/19 07:10:13;;;;;;;46.83;25.60;;;6.20;99.90;;;;;;5131643;28;20508;-69
2020/12/19 07:12:39;;;;;;;42.63;25.25;;;6.20;99.90;;;;;;5131945;28;20058;-69
2020/12/19 07:15:08;;;;;;;39.03;23.90;;;6.40;99.90;;;;;;5131622;28;20030;-69
2020/12/19 07:17:49;;;;;;;34.70;21.65;;;6.50;99.90;;;;;;5113319;28;20027;-69
2020/12/19 07:20:22;;;;;;;36.65;22.73;;;6.40;99.90;;;;;;5131650;28;20456;-69
2020/12/19 07:22:50;;;;;;;38.70;21.83;;;6.40;99.90;;;;;;5131706;28;20503;-69
2020/12/19 07:25:16;;;;;;;37.70;21.88;;;6.50;99.90;;;;;;5131646;28;20053;-69
2020/12/19 07:27:41;;;;;;;34.75;21.77;;;6.50;99.90;;;;;;5113439;28;20506;-69
2020/12/19 07:30:07;;;;;;;35.08;21.75;;;6.50;99.90;;;;;;5131591;28;20487;-69
2020/12/19 07:32:32;;;;;;;35.00;21.52;;;6.50;99.90;;;;;;5131550;28;20451;-69
2020/12/19 07:34:59;;;;;;;35.85;21.80;;;6.50;99.90;;;;;;5131491;28;20383;-69
2020/12/19 07:37:26;;;;;;;39.13;21.30;;;6.40;99.90;;;;;;5131517;28;20103;-69
2020/12/19 07:40:02;;;;;;;38.08;22.15;;;6.40;99.90;;;;;;5131078;28;20081;-69
2020/12/19 07:42:28;;;;;;;42.25;22.45;;;6.40;99.90;;;;;;5131501;28;20016;-69
2020/12/19 07:44:53;;;;;;;42.67;22.45;;;6.40;99.90;;;;;;5112886;28;20019;-69
2020/12/19 07:47:19;;;;;;;41.88;22.90;;;6.40;99.90;;;;;;5131057;28;20020;-69
2020/12/19 07:49:47;;;;;;;39.63;23.48;;;6.50;99.90;;;;;;5130661;28;20028;-69
2020/12/19 07:52:20;;;;;;;40.90;23.52;;;6.50;99.90;;;;;;5121108;28;20565;-69
2020/12/19 07:55:02;;;;;;;41.17;23.88;;;6.60;99.90;;;;;;5117438;28;20023;-69
2020/12/19 07:57:30;;;;;;;36.80;23.23;;;6.70;99.90;;;;;;5117421;28;20118;-69
2020/12/19 07:59:57;;;;;;;43.35;24.40;;;6.70;99.90;;;;;;5116948;28;20024;-69
2020/12/19 08:02:23;;;;;;;48.28;25.48;;;6.90;99.90;;;;;;5116977;28;20019;-69
2020/12/19 08:04:52;;;;;;;37.28;22.20;;;7.20;99.90;;;;;;5117166;28;20478;-69
2020/12/19 08:07:19;;;;;;;35.20;20.85;;;7.60;99.90;;;;;;5117144;28;20019;-69
2020/12/19 08:09:45;;;;;;;40.88;23.88;;;8.10;99.90;;;;;;5117109;28;20020;-68
2020/12/19 08:12:11;;;;;;;37.25;20.17;;;8.80;99.90;;;;;;5116529;28;20035;-69
2020/12/19 08:14:39;;;;;;;25.73;17.20;;;9.20;99.90;;;;;;5117048;28;20117;-69
2020/12/19 08:17:12;;;;;;;26.58;17.67;;;9.70;99.90;;;;;;5098378;28;20049;-69
2020/12/19 08:19:42;;;;;;;20.65;14.00;;;10.40;99.90;;;;;;5098036;28;20111;-68
2020/12/19 08:22:09;;;;;;;23.50;15.07;;;10.60;99.90;;;;;;5116917;28;20123;-69
2020/12/19 08:24:35;;;;;;;19.55;13.48;;;11.00;99.90;;;;;;5116760;28;20024;-70
2020/12/19 08:30:18;;;;;;;17.27;13.13;;;12.20;99.90;;;;;;5112114;27;20400;-69
2020/12/19 08:32:50;;;;;;;19.88;13.68;;;12.00;99.90;;;;;;5110469;28;20047;-70
2020/12/19 08:35:18;;;;;;;16.95;12.82;;;11.00;99.90;;;;;;5111837;28;20449;-69
2020/12/19 08:37:43;;;;;;;20.10;14.13;;;11.30;99.90;;;;;;5109963;28;20024;-69
2020/12/19 08:40:14;;;;;;;20.65;14.20;;;11.60;99.90;;;;;;5111752;28;20369;-69
2020/12/19 08:42:40;;;;;;;20.02;14.63;;;11.90;99.90;;;;;;5111721;28;20020;-70
2020/12/19 08:45:14;;;;;;;19.83;14.15;;;11.40;99.90;;;;;;5111671;28;20020;-69
2020/12/19 08:47:41;;;;;;;18.95;13.57;;;12.20;99.90;;;;;;5111659;28;20031;-70
2020/12/19 08:50:06;;;;;;;16.67;12.55;;;13.00;99.90;;;;;;5111501;28;20376;-70
2020/12/19 08:52:32;;;;;;;16.42;12.55;;;13.30;99.90;;;;;;5111566;28;20020;-70
2020/12/19 08:54:59;;;;;;;17.67;12.98;;;13.60;99.90;;;;;;5110253;28;20036;-69
2020/12/19 08:57:27;;;;;;;18.00;12.15;;;13.80;99.90;;;;;;5111491;28;20016;-70
2020/12/19 08:59:52;;;;;;;18.50;12.13;;;14.00;99.90;;;;;;5111386;28;20027;-70
2020/12/19 09:02:20;;;;;;;14.98;11.30;;;13.90;99.90;;;;;;5109866;28;20031;-69
2020/12/19 09:04:48;;;;;;;14.35;11.00;;;14.20;99.90;;;;;;5109509;28;20031;-69
2020/12/19 09:07:13;;;;;;;15.52;11.60;;;14.90;99.90;;;;;;5109384;28;20403;-69
2020/12/19 09:09:39;;;;;;;15.05;10.85;;;14.80;99.90;;;;;;5110567;28;20024;-69
2020/12/19 09:12:07;;;;;;;14.27;11.07;;;14.90;99.90;;;;;;5111180;28;20024;-69
2020/12/19 09:14:32;;;;;;;15.75;11.32;;;15.30;99.90;;;;;;5111118;28;20364;-69
2020/12/19 09:16:58;;;;;;;15.73;10.70;;;15.40;99.90;;;;;;5110762;28;20028;-69
2020/12/19 09:19:23;;;;;;;14.13;10.30;;;15.70;99.90;;;;;;5109157;28;20024;-69
2020/12/19 09:21:54;;;;;;;17.10;11.43;;;15.40;99.90;;;;;;5110918;28;20103;-69
2020/12/19 09:24:21;;;;;;;14.20;10.90;;;15.70;99.90;;;;;;5109267;28;20407;-70
2020/12/19 09:26:47;;;;;;;16.30;11.50;;;16.20;99.90;;;;;;5110942;28;20020;-69
2020/12/19 09:29:12;;;;;;;15.80;10.57;;;16.00;99.90;;;;;;5109136;28;20093;-69
2020/12/19 09:31:38;;;;;;;13.05;9.98;;;16.20;99.90;;;;;;5109241;28;20115;-69
2020/12/19 09:34:04;;;;;;;12.88;9.57;;;16.30;99.90;;;;;;5110224;28;20019;-69
2020/12/19 09:36:29;;;;;;;13.13;9.80;;;17.00;99.90;;;;;;5110433;28;20016;-69
2020/12/19 09:38:55;;;;;;;12.10;9.50;;;16.50;99.90;;;;;;5110121;28;20032;-69
2020/12/19 09:41:20;;;;;;;12.80;9.73;;;17.00;99.90;;;;;;5097854;28;20020;-69
2020/12/19 09:43:46;;;;;;;9.85;8.82;;;17.20;99.90;;;;;;5096713;28;20103;-69
2020/12/19 09:46:14;;;;;;;12.80;8.70;;;16.90;99.90;;;;;;5096942;28;20081;-69
2020/12/19 09:48:40;;;;;;;12.75;9.07;;;17.30;99.90;;;;;;5095121;28;20020;-69
2020/12/19 09:51:05;;;;;;;10.90;8.73;;;16.60;99.90;;;;;;5097128;28;20028;-69
2020/12/19 09:53:31;;;;;;;11.23;8.35;;;17.20;99.90;;;;;;5096826;28;20457;-69
2020/12/19 09:55:56;;;;;;;13.38;9.27;;;17.00;99.90;;;;;;5095602;28;20077;-69
2020/12/19 09:58:22;;;;;;;14.02;9.40;;;17.40;99.90;;;;;;5096197;28;20024;-69
2020/12/19 10:00:47;;;;;;;11.75;8.85;;;18.20;99.90;;;;;;5096690;28;20043;-69
2020/12/19 10:03:13;;;;;;;10.57;8.38;;;17.40;99.90;;;;;;5096642;28;20020;-69
2020/12/19 10:05:39;;;;;;;10.57;8.10;;;17.70;99.90;;;;;;5096550;28;20031;-69
2020/12/19 10:08:04;;;;;;;10.63;7.90;;;18.10;99.90;;;;;;5096472;28;20031;-69
2020/12/19 10:10:30;;;;;;;10.75;7.80;;;17.20;99.90;;;;;;5096525;28;20016;-69
2020/12/19 10:12:55;;;;;;;11.60;7.90;;;17.50;99.90;;;;;;5096461;28;20023;-69
2020/12/19 10:15:21;;;;;;;11.27;8.15;;;17.60;99.90;;;;;;5096383;28;20028;-69
2020/12/19 10:17:46;;;;;;;10.35;7.45;;;17.90;99.90;;;;;;5096340;28;20031;-69
2020/12/19 10:20:12;;;;;;;11.45;8.07;;;17.00;99.90;;;;;;5095134;28;20043;-69
2020/12/19 10:22:37;;;;;;;12.55;7.88;;;17.00;99.90;;;;;;5095696;28;20024;-69
2020/12/19 10:25:03;;;;;;;11.75;7.95;;;17.10;99.90;;;;;;5094759;28;20024;-69
2020/12/19 10:27:29;;;;;;;9.32;7.55;;;16.50;99.90;;;;;;5094348;28;20024;-69
2020/12/19 10:29:55;;;;;;;9.45;7.45;;;16.70;99.90;;;;;;5095387;28;20374;-69
2020/12/19 10:32:21;;;;;;;9.70;7.53;;;16.90;99.90;;;;;;5096091;28;20052;-69
2020/12/19 10:34:47;;;;;;;9.15;7.25;;;17.20;99.90;;;;;;5096023;28;20024;-69
2020/12/19 10:37:12;;;;;;;10.48;7.18;;;17.50;99.90;;;;;;5095961;28;20095;-69
2020/12/19 10:39:38;;;;;;;9.50;6.90;;;17.10;99.90;;;;;;5095936;28;20024;-69
2020/12/19 10:42:03;;;;;;;11.73;7.25;;;16.80;99.90;;;;;;5094669;28;20419;-69
2020/12/19 10:44:29;;;;;;;9.82;6.68;;;17.10;99.90;;;;;;5095786;28;20024;-69
2020/12/19 10:46:58;;;;;;;9.30;6.97;;;17.60;99.90;;;;;;5095724;28;20024;-69
2020/12/19 10:49:24;;;;;;;11.68;6.80;;;17.80;99.90;;;;;;5094201;28;20480;-69
2020/12/19 10:51:49;;;;;;;9.07;6.55;;;18.00;99.90;;;;;;5094419;28;20146;-69
2020/12/19 10:54:15;;;;;;;9.40;6.70;;;17.30;99.90;;;;;;5095407;28;20028;-69
2020/12/19 10:56:40;;;;;;;9.00;6.72;;;17.50;99.90;;;;;;5095609;28;20084;-69
2020/12/19 10:59:06;;;;;;;8.52;6.10;;;17.30;99.90;;;;;;5095294;28;20107;-70
2020/12/19 11:01:31;;;;;;;10.75;6.38;;;17.70;99.90;;;;;;5094263;28;20099;-69
2020/12/19 11:03:57;;;;;;;6.97;5.85;;;17.80;99.90;;;;;;5095196;28;20032;-69
2020/12/19 11:06:24;;;;;;;8.35;5.93;;;18.20;99.90;;;;;;5095155;28;20028;-70
2020/12/19 11:08:52;;;;;;;8.75;6.10;;;18.00;99.90;;;;;;5095267;28;20077;-69
2020/12/19 11:11:18;;;;;;;8.70;6.47;;;17.80;99.90;;;;;;5095283;28;20024;-69
2020/12/19 11:13:44;;;;;;;9.88;6.03;;;17.40;99.90;;;;;;5095285;28;20024;-70
2020/12/19 11:16:19;;;;;;;8.93;6.05;;;17.30;99.90;;;;;;5094971;28;20529;-69
2020/12/19 11:18:44;;;;;;;8.60;6.45;;;16.30;99.90;;;;;;5095190;28;20453;-69
2020/12/19 11:21:10;;;;;;;8.63;6.32;;;15.50;99.90;;;;;;5095113;28;20027;-69
2020/12/19 11:23:38;;;;;;;10.05;6.32;;;15.10;99.90;;;;;;5095073;28;20028;-69
2020/12/19 11:26:03;;;;;;;11.95;7.03;;;14.60;99.90;;;;;;5093524;28;20036;-69
2020/12/19 11:28:29;;;;;;;8.80;6.20;;;14.60;99.90;;;;;;5094587;28;20052;-69
2020/12/19 11:30:54;;;;;;;9.63;6.78;;;14.60;99.90;;;;;;5094852;28;20089;-69
2020/12/19 11:33:20;;;;;;;7.95;6.38;;;14.30;99.90;;;;;;5094589;28;20051;-69
2020/12/19 11:35:45;;;;;;;10.25;6.60;;;14.10;99.90;;;;;;5094822;28;20035;-69
2020/12/19 11:38:11;;;;;;;9.25;6.30;;;14.10;99.90;;;;;;5094521;28;20016;-69
2020/12/19 11:40:36;;;;;;;9.25;6.18;;;14.00;99.90;;;;;;5094461;28;20091;-69
2020/12/19 11:43:02;;;;;;;7.78;6.13;;;14.00;99.90;;;;;;5094180;28;20024;-69
2020/12/19 11:45:28;;;;;;;11.70;6.22;;;14.00;99.90;;;;;;5094684;28;20047;-69
2020/12/19 11:47:53;;;;;;;10.30;6.25;;;13.80;99.90;;;;;;5093421;28;20027;-69
2020/12/19 11:50:19;;;;;;;9.98;5.93;;;13.90;99.90;;;;;;5093195;28;20020;-69
2020/12/19 11:52:44;;;;;;;9.18;5.38;;;13.90;99.90;;;;;;5093015;28;20191;-69
2020/12/19 11:55:10;;;;;;;7.20;5.13;;;13.90;99.90;;;;;;5094240;28;20028;-69
2020/12/19 11:57:37;;;;;;;6.43;4.85;;;13.70;99.90;;;;;;5094234;28;20016;-69
2020/12/19 12:00:04;;;;;;;6.82;4.63;;;13.80;99.90;;;;;;5094488;28;20020;-69
2020/12/19 12:02:30;;;;;;;6.75;4.95;;;13.90;99.90;;;;;;5094339;28;20024;-69
2020/12/19 12:04:55;;;;;;;8.55;5.30;;;13.90;99.90;;;;;;5094181;28;20024;-69
2020/12/19 12:07:21;;;;;;;8.65;5.18;;;14.00;99.90;;;;;;5092656;28;20032;-69
2020/12/19 12:09:47;;;;;;;7.57;4.82;;;13.90;99.90;;;;;;5094263;28;20025;-69
2020/12/19 12:12:12;;;;;;;6.00;4.43;;;13.90;99.90;;;;;;5094301;28;20020;-69
2020/12/19 12:14:38;;;;;;;6.57;4.85;;;13.90;99.90;;;;;;5093984;28;20155;-69
2020/12/19 12:17:03;;;;;;;9.38;5.15;;;13.90;99.90;;;;;;5093986;28;20091;-69
2020/12/19 12:19:29;;;;;;;7.00;4.13;;;13.90;99.90;;;;;;5093032;28;20551;-69
2020/12/19 12:21:54;;;;;;;7.65;4.35;;;13.80;99.90;;;;;;5093889;28;20035;-68
2020/12/19 12:24:20;;;;;;;6.32;4.40;;;13.90;99.90;;;;;;5093585;28;20469;-69
2020/12/19 12:26:46;;;;;;;7.72;4.63;;;13.90;99.90;;;;;;5093573;28;20078;-69
2020/12/19 12:29:11;;;;;;;8.52;4.47;;;14.00;99.90;;;;;;5093562;28;20043;-69
2020/12/19 12:31:37;;;;;;;5.60;4.25;;;13.90;99.90;;;;;;5092292;28;20021;-69
2020/12/19 12:34:03;;;;;;;6.43;4.38;;;13.80;99.90;;;;;;5092921;28;20016;-69
2020/12/19 12:36:31;;;;;;;5.30;3.90;;;13.80;99.90;;;;;;5094023;28;20095;-69
2020/12/19 12:38:57;;;;;;;7.32;4.47;;;13.70;99.90;;;;;;5092561;28;20038;-69
2020/12/19 12:41:23;;;;;;;8.13;4.63;;;13.70;99.90;;;;;;5093461;28;20016;-69
2020/12/19 12:43:49;;;;;;;6.07;4.18;;;13.70;99.90;;;;;;5093983;28;20031;-69
2020/12/19 12:46:17;;;;;;;7.60;5.00;;;13.70;99.90;;;;;;5093731;28;20408;-69